sensor_id;sensor_type;location;lat;lon;timestamp;pressure;altitude;pressure_sealevel;temperature;humidity
21300;BME280;10809;49.476;11.016;2023-02-21T00:01:44;98705.44;;;7.97;54.24
21300;BME280;10809;49.476;11.016;2023-02-21T00:04:36;98701.19;;;7.93;54.13
21300;BME280;10809;49.476;11.016;2023-02-21T00:07:25;98690.72;;;7.92;54.25
21300;BME280;10809;49.476;11.016;2023-02-21T00:10:16;98687.28;;;7.90;53.97
21300;BME280;10809;49.476;11.016;2023-02-21T00:13:05;98682.13;;;7.87;54.47
21300;BME280;10809;49.476;11.016;2023-02-21T00:15:54;98692.72;;;7.85;54.19
21300;BME280;10809;49.476;11.016;2023-02-21T00:18:44;98691.06;;;7.82;54.57
21300;BME280;10809;49.476;11.016;2023-02-21T00:21:33;98683.22;;;7.81;54.54
21300;BME280;10809;49.476;11.016;2023-02-21T00:24:22;98679.78;;;7.79;54.27
21300;BME280;10809;49.476;11.016;2023-02-21T00:27:11;98670.28;;;7.75;54.29
21300;BME280;10809;49.476;11.016;2023-02-21T00:30:04;98673.88;;;7.72;54.53
21300;BME280;10809;49.476;11.016;2023-02-21T00:32:53;98675.72;;;7.70;54.92
21300;BME280;10809;49.476;11.016;2023-02-21T00:35:43;98676.75;;;7.66;54.96
21300;BME280;10809;49.476;11.016;2023-02-21T00:38:34;98675.91;;;7.66;54.95
21300;BME280;10809;49.476;11.016;2023-02-21T00:41:27;98670.81;;;7.61;54.70
21300;BME280;10809;49.476;11.016;2023-02-21T00:44:20;98674.34;;;7.60;54.79
21300;BME280;10809;49.476;11.016;2023-02-21T00:47:09;98674.47;;;7.57;54.71
21300;BME280;10809;49.476;11.016;2023-02-21T00:49:59;98672.00;;;7.53;54.67
21300;BME280;10809;49.476;11.016;2023-02-21T00:52:48;98667.72;;;7.50;54.89
21300;BME280;10809;49.476;11.016;2023-02-21T00:55:37;98655.59;;;7.46;54.66
21300;BME280;10809;49.476;11.016;2023-02-21T00:58:26;98660.16;;;7.41;54.84
21300;BME280;10809;49.476;11.016;2023-02-21T01:01:19;98655.06;;;7.37;54.67
21300;BME280;10809;49.476;11.016;2023-02-21T01:04:09;98656.16;;;7.31;54.57
21300;BME280;10809;49.476;11.016;2023-02-21T01:06:58;98648.44;;;7.27;54.81
21300;BME280;10809;49.476;11.016;2023-02-21T01:09:52;98651.13;;;7.24;54.88
21300;BME280;10809;49.476;11.016;2023-02-21T01:12:48;98650.47;;;7.19;54.94
21300;BME280;10809;49.476;11.016;2023-02-21T01:15:37;98647.09;;;7.15;55.01
21300;BME280;10809;49.476;11.016;2023-02-21T01:18:26;98651.59;;;7.12;55.10
21300;BME280;10809;49.476;11.016;2023-02-21T01:21:16;98649.13;;;7.07;55.24
21300;BME280;10809;49.476;11.016;2023-02-21T01:24:11;98657.97;;;7.05;55.25
21300;BME280;10809;49.476;11.016;2023-02-21T01:27:02;98658.09;;;7.02;55.30
21300;BME280;10809;49.476;11.016;2023-02-21T01:29:52;98658.25;;;6.97;55.29
21300;BME280;10809;49.476;11.016;2023-02-21T01:32:42;98658.41;;;6.93;55.42
21300;BME280;10809;49.476;11.016;2023-02-21T01:35:31;98658.47;;;6.91;55.33
21300;BME280;10809;49.476;11.016;2023-02-21T01:38:20;98660.34;;;6.88;55.43
21300;BME280;10809;49.476;11.016;2023-02-21T01:41:11;98657.88;;;6.83;55.22
21300;BME280;10809;49.476;11.016;2023-02-21T01:44:06;98657.19;;;6.78;55.57
21300;BME280;10809;49.476;11.016;2023-02-21T01:47:11;98658.25;;;6.73;55.42
21300;BME280;10809;49.476;11.016;2023-02-21T01:50:09;98652.22;;;6.69;55.42
21300;BME280;10809;49.476;11.016;2023-02-21T01:53:01;98653.25;;;6.65;55.30
21300;BME280;10809;49.476;11.016;2023-02-21T01:55:55;98658.66;;;6.61;55.49
21300;BME280;10809;49.476;11.016;2023-02-21T01:58:50;98653.56;;;6.56;55.39
21300;BME280;10809;49.476;11.016;2023-02-21T02:01:49;98644.94;;;6.51;55.41
21300;BME280;10809;49.476;11.016;2023-02-21T02:04:43;98650.38;;;6.47;55.42
21300;BME280;10809;49.476;11.016;2023-02-21T02:07:38;98645.31;;;6.41;55.40
21300;BME280;10809;49.476;11.016;2023-02-21T02:10:31;98644.59;;;6.37;55.17
21300;BME280;10809;49.476;11.016;2023-02-21T02:16:31;98643.25;;;6.24;55.47
21300;BME280;10809;49.476;11.016;2023-02-21T02:19:28;98647.69;;;6.22;55.59
21300;BME280;10809;49.476;11.016;2023-02-21T02:25:04;98646.34;;;6.11;55.58
21300;BME280;10809;49.476;11.016;2023-02-21T02:28:12;98638.53;;;6.07;55.65
21300;BME280;10809;49.476;11.016;2023-02-21T02:36:41;98642.44;;;5.96;55.96
21300;BME280;10809;49.476;11.016;2023-02-21T02:45:04;98629.50;;;5.90;56.23
21300;BME280;10809;49.476;11.016;2023-02-21T02:47:44;98632.19;;;5.88;56.23
21300;BME280;10809;49.476;11.016;2023-02-21T02:50:21;98638.38;;;5.86;56.18
21300;BME280;10809;49.476;11.016;2023-02-21T02:53:00;98636.66;;;5.85;56.37
21300;BME280;10809;49.476;11.016;2023-02-21T02:58:46;98653.44;;;5.81;56.21
21300;BME280;10809;49.476;11.016;2023-02-21T03:01:47;98653.47;;;5.79;56.29
21300;BME280;10809;49.476;11.016;2023-02-21T03:04:36;98652.75;;;5.74;56.09
21300;BME280;10809;49.476;11.016;2023-02-21T03:10:26;98658.16;;;5.70;56.23
21300;BME280;10809;49.476;11.016;2023-02-21T03:16:21;98655.66;;;5.65;56.15
21300;BME280;10809;49.476;11.016;2023-02-21T03:19:15;98649.69;;;5.60;56.37
21300;BME280;10809;49.476;11.016;2023-02-21T03:21:54;98653.28;;;5.58;56.20
21300;BME280;10809;49.476;11.016;2023-02-21T03:24:37;98648.94;;;5.55;56.43
21300;BME280;10809;49.476;11.016;2023-02-21T03:27:11;98650.84;;;5.52;56.52
21300;BME280;10809;49.476;11.016;2023-02-21T03:30:06;98656.97;;;5.51;56.47
21300;BME280;10809;49.476;11.016;2023-02-21T03:32:41;98647.38;;;5.50;56.89
21300;BME280;10809;49.476;11.016;2023-02-21T03:35:14;98644.75;;;5.50;57.00
21300;BME280;10809;49.476;11.016;2023-02-21T03:37:51;98646.50;;;5.49;57.18
21300;BME280;10809;49.476;11.016;2023-02-21T03:40:35;98649.09;;;5.51;57.46
21300;BME280;10809;49.476;11.016;2023-02-21T03:43:07;98648.16;;;5.53;57.75
21300;BME280;10809;49.476;11.016;2023-02-21T03:45:45;98648.91;;;5.57;57.78
21300;BME280;10809;49.476;11.016;2023-02-21T03:48:19;98647.94;;;5.61;57.80
21300;BME280;10809;49.476;11.016;2023-02-21T03:50:50;98651.25;;;5.66;57.65
21300;BME280;10809;49.476;11.016;2023-02-21T03:53:25;98638.84;;;5.71;57.98
21300;BME280;10809;49.476;11.016;2023-02-21T03:55:56;98641.38;;;5.74;58.10
21300;BME280;10809;49.476;11.016;2023-02-21T03:58:42;98637.66;;;5.81;57.88
21300;BME280;10809;49.476;11.016;2023-02-21T04:01:22;98628.78;;;5.85;58.13
21300;BME280;10809;49.476;11.016;2023-02-21T04:03:54;98638.22;;;5.90;58.02
21300;BME280;10809;49.476;11.016;2023-02-21T04:06:28;98639.88;;;5.94;58.22
21300;BME280;10809;49.476;11.016;2023-02-21T04:09:00;98634.47;;;5.99;58.31
21300;BME280;10809;49.476;11.016;2023-02-21T04:11:34;98628.19;;;6.03;58.24
21300;BME280;10809;49.476;11.016;2023-02-21T04:14:12;98632.41;;;6.07;58.27
21300;BME280;10809;49.476;11.016;2023-02-21T04:16:50;98632.22;;;6.13;58.03
21300;BME280;10809;49.476;11.016;2023-02-21T04:19:23;98631.28;;;6.16;58.29
21300;BME280;10809;49.476;11.016;2023-02-21T04:21:53;98634.66;;;6.19;58.20
21300;BME280;10809;49.476;11.016;2023-02-21T04:24:27;98636.34;;;6.22;58.37
21300;BME280;10809;49.476;11.016;2023-02-21T04:26:58;98630.09;;;6.24;58.22
21300;BME280;10809;49.476;11.016;2023-02-21T04:29:29;98634.44;;;6.27;58.15
21300;BME280;10809;49.476;11.016;2023-02-21T04:32:00;98630.81;;;6.29;58.46
21300;BME280;10809;49.476;11.016;2023-02-21T04:34:33;98632.44;;;6.33;58.18
21300;BME280;10809;49.476;11.016;2023-02-21T04:37:04;98633.25;;;6.35;58.15
21300;BME280;10809;49.476;11.016;2023-02-21T04:39:35;98621.75;;;6.38;58.53
21300;BME280;10809;49.476;11.016;2023-02-21T04:42:06;98620.81;;;6.40;58.47
21300;BME280;10809;49.476;11.016;2023-02-21T04:44:39;98617.22;;;6.43;58.42
21300;BME280;10809;49.476;11.016;2023-02-21T04:47:22;98611.78;;;6.47;58.25
21300;BME280;10809;49.476;11.016;2023-02-21T04:50:03;98607.41;;;6.48;58.17
21300;BME280;10809;49.476;11.016;2023-02-21T04:52:37;98603.78;;;6.50;58.41
21300;BME280;10809;49.476;11.016;2023-02-21T04:55:10;98595.84;;;6.52;58.53
21300;BME280;10809;49.476;11.016;2023-02-21T04:57:40;98596.72;;;6.52;58.11
21300;BME280;10809;49.476;11.016;2023-02-21T05:00:31;98598.38;;;6.55;58.20
21300;BME280;10809;49.476;11.016;2023-02-21T05:03:02;98601.00;;;6.55;58.12
21300;BME280;10809;49.476;11.016;2023-02-21T05:05:32;98593.94;;;6.57;58.32
21300;BME280;10809;49.476;11.016;2023-02-21T05:08:06;98594.75;;;6.57;58.32
21300;BME280;10809;49.476;11.016;2023-02-21T05:10:39;98595.56;;;6.59;58.43
21300;BME280;10809;49.476;11.016;2023-02-21T05:13:10;98595.53;;;6.61;58.49
21300;BME280;10809;49.476;11.016;2023-02-21T05:15:41;98597.19;;;6.63;58.69
21300;BME280;10809;49.476;11.016;2023-02-21T05:18:12;98595.41;;;6.64;58.58
21300;BME280;10809;49.476;11.016;2023-02-21T05:20:42;98591.88;;;6.65;58.61
21300;BME280;10809;49.476;11.016;2023-02-21T05:23:13;98597.94;;;6.67;58.42
21300;BME280;10809;49.476;11.016;2023-02-21T05:25:49;98597.81;;;6.70;58.59
21300;BME280;10809;49.476;11.016;2023-02-21T05:28:20;98601.34;;;6.70;58.62
21300;BME280;10809;49.476;11.016;2023-02-21T05:30:54;98591.59;;;6.72;58.45
21300;BME280;10809;49.476;11.016;2023-02-21T05:33:25;98587.19;;;6.73;58.69
21300;BME280;10809;49.476;11.016;2023-02-21T05:35:56;98593.31;;;6.73;58.79
21300;BME280;10809;49.476;11.016;2023-02-21T05:38:29;98585.38;;;6.75;58.76
21300;BME280;10809;49.476;11.016;2023-02-21T05:41:00;98591.47;;;6.75;58.71
21300;BME280;10809;49.476;11.016;2023-02-21T05:43:36;98588.81;;;6.77;58.62
21300;BME280;10809;49.476;11.016;2023-02-21T05:46:43;98588.78;;;6.78;58.53
21300;BME280;10809;49.476;11.016;2023-02-21T05:49:13;98593.16;;;6.78;58.34
21300;BME280;10809;49.476;11.016;2023-02-21T05:51:44;98594.03;;;6.78;58.50
21300;BME280;10809;49.476;11.016;2023-02-21T05:54:17;98590.53;;;6.78;58.80
21300;BME280;10809;49.476;11.016;2023-02-21T05:56:51;98591.41;;;6.78;58.26
21300;BME280;10809;49.476;11.016;2023-02-21T05:59:22;98589.66;;;6.77;58.78
21300;BME280;10809;49.476;11.016;2023-02-21T06:01:54;98590.53;;;6.78;58.52
21300;BME280;10809;49.476;11.016;2023-02-21T06:04:29;98588.81;;;6.77;58.38
21300;BME280;10809;49.476;11.016;2023-02-21T06:07:05;98589.66;;;6.77;58.61
21300;BME280;10809;49.476;11.016;2023-02-21T06:09:36;98579.13;;;6.77;58.78
21300;BME280;10809;49.476;11.016;2023-02-21T06:12:12;98585.38;;;6.75;58.60
21300;BME280;10809;49.476;11.016;2023-02-21T06:14:43;98583.59;;;6.75;58.88
21300;BME280;10809;49.476;11.016;2023-02-21T06:17:13;98591.47;;;6.75;58.81
21300;BME280;10809;49.476;11.016;2023-02-21T06:19:55;98586.22;;;6.75;58.88
21300;BME280;10809;49.476;11.016;2023-02-21T06:22:33;98584.50;;;6.74;58.40
21300;BME280;10809;49.476;11.016;2023-02-21T06:25:04;98594.97;;;6.76;59.00
21300;BME280;10809;49.476;11.016;2023-02-21T06:27:35;98595.91;;;6.75;58.94
21300;BME280;10809;49.476;11.016;2023-02-21T06:30:06;98592.28;;;6.77;59.01
21300;BME280;10809;49.476;11.016;2023-02-21T06:32:36;98592.28;;;6.77;59.06
21300;BME280;10809;49.476;11.016;2023-02-21T06:35:11;98600.13;;;6.79;58.92
21300;BME280;10809;49.476;11.016;2023-02-21T06:37:44;98594.81;;;6.80;59.04
21300;BME280;10809;49.476;11.016;2023-02-21T06:40:15;98600.03;;;6.82;59.03
21300;BME280;10809;49.476;11.016;2023-02-21T06:42:45;98593.81;;;6.84;59.28
21300;BME280;10809;49.476;11.016;2023-02-21T06:45:16;98588.50;;;6.86;59.18
21300;BME280;10809;49.476;11.016;2023-02-21T06:47:46;98592.78;;;6.88;59.14
21300;BME280;10809;49.476;11.016;2023-02-21T06:50:16;98585.69;;;6.90;59.34
21300;BME280;10809;49.476;11.016;2023-02-21T06:52:47;98599.63;;;6.92;59.42
21300;BME280;10809;49.476;11.016;2023-02-21T06:55:21;98591.63;;;6.95;59.63
21300;BME280;10809;49.476;11.016;2023-02-21T06:57:51;98599.47;;;6.97;59.40
21300;BME280;10809;49.476;11.016;2023-02-21T07:00:22;98603.72;;;7.01;59.59
21300;BME280;10809;49.476;11.016;2023-02-21T07:02:52;98603.72;;;7.01;59.37
21300;BME280;10809;49.476;11.016;2023-02-21T07:05:23;98600.97;;;7.04;59.73
21300;BME280;10809;49.476;11.016;2023-02-21T07:07:56;98607.88;;;7.06;59.10
21300;BME280;10809;49.476;11.016;2023-02-21T07:10:27;98604.38;;;7.07;59.56
21300;BME280;10809;49.476;11.016;2023-02-21T07:12:57;98604.25;;;7.10;59.48
21300;BME280;10809;49.476;11.016;2023-02-21T07:15:28;98605.13;;;7.11;59.50
21300;BME280;10809;49.476;11.016;2023-02-21T07:17:58;98608.50;;;7.14;59.69
21300;BME280;10809;49.476;11.016;2023-02-21T07:20:28;98604.03;;;7.16;59.72
21300;BME280;10809;49.476;11.016;2023-02-21T07:22:59;98611.81;;;7.19;59.94
21300;BME280;10809;49.476;11.016;2023-02-21T07:25:30;98608.28;;;7.20;59.61
21300;BME280;10809;49.476;11.016;2023-02-21T07:28:00;98613.50;;;7.22;59.65
21300;BME280;10809;49.476;11.016;2023-02-21T07:30:33;98611.63;;;7.24;59.46
21300;BME280;10809;49.476;11.016;2023-02-21T07:33:09;98613.31;;;7.26;59.23
21300;BME280;10809;49.476;11.016;2023-02-21T07:35:40;98613.25;;;7.28;59.45
21300;BME280;10809;49.476;11.016;2023-02-21T07:38:28;98615.78;;;7.31;59.49
21300;BME280;10809;49.476;11.016;2023-02-21T07:41:01;98622.63;;;7.35;59.64
21300;BME280;10809;49.476;11.016;2023-02-21T07:43:31;98619.94;;;7.36;59.49
21300;BME280;10809;49.476;11.016;2023-02-21T07:46:09;98626.91;;;7.39;59.47
21300;BME280;10809;49.476;11.016;2023-02-21T07:48:43;98628.53;;;7.41;59.75
21300;BME280;10809;49.476;11.016;2023-02-21T07:51:14;98628.44;;;7.44;59.48
21300;BME280;10809;49.476;11.016;2023-02-21T07:53:44;98631.88;;;7.46;59.31
21300;BME280;10809;49.476;11.016;2023-02-21T07:56:14;98630.94;;;7.47;59.73
21300;BME280;10809;49.476;11.016;2023-02-21T07:58:45;98636.84;;;7.54;60.29
21300;BME280;10809;49.476;11.016;2023-02-21T08:01:15;98639.91;;;7.65;60.57
21300;BME280;10809;49.476;11.016;2023-02-21T08:03:49;98638.41;;;7.81;61.30
21300;BME280;10809;49.476;11.016;2023-02-21T08:06:19;98637.50;;;8.04;62.16
21300;BME280;10809;49.476;11.016;2023-02-21T08:08:49;98633.66;;;8.32;62.51
21300;BME280;10809;49.476;11.016;2023-02-21T08:11:23;98629.63;;;8.65;62.74
21300;BME280;10809;49.476;11.016;2023-02-21T08:13:53;98632.47;;;9.01;63.15
21300;BME280;10809;49.476;11.016;2023-02-21T08:16:23;98631.63;;;9.39;62.78
21300;BME280;10809;49.476;11.016;2023-02-21T08:18:54;98633.50;;;9.74;62.10
21300;BME280;10809;49.476;11.016;2023-02-21T08:21:24;98628.41;;;10.07;61.64
21300;BME280;10809;49.476;11.016;2023-02-21T08:23:54;98629.41;;;10.40;61.01
21300;BME280;10809;49.476;11.016;2023-02-21T08:26:44;98632.94;;;10.74;60.40
21300;BME280;10809;49.476;11.016;2023-02-21T08:29:14;98637.66;;;11.02;60.54
21300;BME280;10809;49.476;11.016;2023-02-21T08:31:53;98637.00;;;11.31;60.38
21300;BME280;10809;49.476;11.016;2023-02-21T08:34:23;98638.38;;;11.55;59.66
21300;BME280;10809;49.476;11.016;2023-02-21T08:37:03;98647.88;;;11.75;58.58
21300;BME280;10809;49.476;11.016;2023-02-21T08:39:52;98648.13;;;11.86;57.55
21300;BME280;10809;49.476;11.016;2023-02-21T08:42:22;98660.31;;;11.90;56.82
21300;BME280;10809;49.476;11.016;2023-02-21T08:44:52;98657.66;;;11.90;56.31
21300;BME280;10809;49.476;11.016;2023-02-21T08:47:26;98652.59;;;11.85;56.17
21300;BME280;10809;49.476;11.016;2023-02-21T08:49:56;98654.72;;;11.79;55.74
21300;BME280;10809;49.476;11.016;2023-02-21T08:52:26;98653.34;;;11.72;55.14
21300;BME280;10809;49.476;11.016;2023-02-21T08:54:57;98655.56;;;11.64;55.53
21300;BME280;10809;49.476;11.016;2023-02-21T08:57:27;98661.38;;;11.55;55.58
21300;BME280;10809;49.476;11.016;2023-02-21T09:00:01;98660.00;;;11.48;55.58
21300;BME280;10809;49.476;11.016;2023-02-21T09:02:35;98660.31;;;11.42;55.57
21300;BME280;10809;49.476;11.016;2023-02-21T09:05:21;98664.06;;;11.38;55.75
21300;BME280;10809;49.476;11.016;2023-02-21T09:07:55;98666.16;;;11.31;55.72
21300;BME280;10809;49.476;11.016;2023-02-21T09:10:31;98662.84;;;11.27;55.63
21300;BME280;10809;49.476;11.016;2023-02-21T09:13:11;98669.25;;;11.22;55.72
21300;BME280;10809;49.476;11.016;2023-02-21T09:15:42;98669.59;;;11.16;55.62
21300;BME280;10809;49.476;11.016;2023-02-21T09:18:15;98669.91;;;11.10;55.53
21300;BME280;10809;49.476;11.016;2023-02-21T09:20:45;98669.38;;;11.03;55.43
21300;BME280;10809;49.476;11.016;2023-02-21T09:23:23;98669.78;;;10.96;55.60
21300;BME280;10809;49.476;11.016;2023-02-21T09:25:55;98664.88;;;10.88;55.51
21300;BME280;10809;49.476;11.016;2023-02-21T09:28:26;98668.75;;;10.81;55.58
21300;BME280;10809;49.476;11.016;2023-02-21T09:30:58;98670.00;;;10.74;55.71
21300;BME280;10809;49.476;11.016;2023-02-21T09:33:28;98660.63;;;10.67;55.90
21300;BME280;10809;49.476;11.016;2023-02-21T09:36:00;98667.97;;;10.62;56.00
21300;BME280;10809;49.476;11.016;2023-02-21T09:38:30;98670.84;;;10.58;56.09
21300;BME280;10809;49.476;11.016;2023-02-21T09:41:04;98671.84;;;10.55;56.55
21300;BME280;10809;49.476;11.016;2023-02-21T09:43:47;98667.50;;;10.54;56.53
21300;BME280;10809;49.476;11.016;2023-02-21T09:49:00;98664.84;;;10.54;56.70
21300;BME280;10809;49.476;11.016;2023-02-21T09:51:32;98656.84;;;10.56;57.04
21300;BME280;10809;49.476;11.016;2023-02-21T09:54:15;98658.47;;;10.58;56.74
21300;BME280;10809;49.476;11.016;2023-02-21T09:56:48;98653.09;;;10.60;56.71
21300;BME280;10809;49.476;11.016;2023-02-21T09:59:18;98652.09;;;10.62;56.60
21300;BME280;10809;49.476;11.016;2023-02-21T10:04:55;98650.34;;;10.61;56.76
21300;BME280;10809;49.476;11.016;2023-02-21T10:10:13;98654.81;;;10.61;56.56
21300;BME280;10809;49.476;11.016;2023-02-21T10:15:53;98652.19;;;10.61;56.96
21300;BME280;10809;49.476;11.016;2023-02-21T10:18:42;98660.03;;;10.62;57.01
21300;BME280;10809;49.476;11.016;2023-02-21T10:21:21;98655.50;;;10.64;56.65
21300;BME280;10809;49.476;11.016;2023-02-21T10:23:54;98655.41;;;10.66;56.95
21300;BME280;10809;49.476;11.016;2023-02-21T10:26:28;98655.34;;;10.67;57.08
21300;BME280;10809;49.476;11.016;2023-02-21T10:28:59;98661.44;;;10.69;57.28
21300;BME280;10809;49.476;11.016;2023-02-21T10:31:35;98656.06;;;10.71;57.31
21300;BME280;10809;49.476;11.016;2023-02-21T10:34:25;98648.81;;;10.74;57.23
21300;BME280;10809;49.476;11.016;2023-02-21T10:37:03;98650.44;;;10.77;57.24
21300;BME280;10809;49.476;11.016;2023-02-21T10:39:42;98644.13;;;10.79;57.05
21300;BME280;10809;49.476;11.016;2023-02-21T10:42:27;98645.88;;;10.80;57.24
21300;BME280;10809;49.476;11.016;2023-02-21T10:45:04;98646.47;;;10.85;57.39
21300;BME280;10809;49.476;11.016;2023-02-21T10:48:05;98651.56;;;10.90;57.41
21300;BME280;10809;49.476;11.016;2023-02-21T10:50:41;98639.84;;;10.94;57.53
21300;BME280;10809;49.476;11.016;2023-02-21T10:53:30;98636.00;;;10.99;57.34
21300;BME280;10809;49.476;11.016;2023-02-21T10:56:20;98637.44;;;11.06;57.64
21300;BME280;10809;49.476;11.016;2023-02-21T10:59:06;98628.22;;;11.13;57.64
21300;BME280;10809;49.476;11.016;2023-02-21T11:04:26;98635.31;;;11.30;57.67
21300;BME280;10809;49.476;11.016;2023-02-21T11:07:01;98632.16;;;11.39;57.65
21300;BME280;10809;49.476;11.016;2023-02-21T11:09:54;98618.47;;;11.47;57.70
21300;BME280;10809;49.476;11.016;2023-02-21T11:12:37;98619.72;;;11.57;57.61
21300;BME280;10809;49.476;11.016;2023-02-21T11:15:17;98613.03;;;11.65;57.51
21300;BME280;10809;49.476;11.016;2023-02-21T11:18:04;98603.78;;;11.72;57.26
21300;BME280;10809;49.476;11.016;2023-02-21T11:20:38;98608.84;;;11.77;57.04
21300;BME280;10809;49.476;11.016;2023-02-21T11:23:27;98602.44;;;11.81;56.99
21300;BME280;10809;49.476;11.016;2023-02-21T11:26:10;98596.00;;;11.85;56.85
21300;BME280;10809;49.476;11.016;2023-02-21T11:28:44;98590.72;;;11.85;56.50
21300;BME280;10809;49.476;11.016;2023-02-21T11:31:28;98590.72;;;11.85;56.60
21300;BME280;10809;49.476;11.016;2023-02-21T11:34:08;98585.41;;;11.85;56.58
21300;BME280;10809;49.476;11.016;2023-02-21T11:36:41;98585.41;;;11.85;56.88
21300;BME280;10809;49.476;11.016;2023-02-21T11:39:25;98576.50;;;11.86;56.97
21300;BME280;10809;49.476;11.016;2023-02-21T11:42:23;98575.56;;;11.87;56.81
21300;BME280;10809;49.476;11.016;2023-02-21T11:45:18;98580.78;;;11.88;56.73
21300;BME280;10809;49.476;11.016;2023-02-21T11:48:17;98579.75;;;11.91;56.76
21300;BME280;10809;49.476;11.016;2023-02-21T11:50:50;98573.53;;;11.92;56.75
21300;BME280;10809;49.476;11.016;2023-02-21T11:53:38;98564.50;;;11.94;56.88
21300;BME280;10809;49.476;11.016;2023-02-21T11:56:47;98559.91;;;11.98;56.89
21300;BME280;10809;49.476;11.016;2023-02-21T12:05:28;98533.22;;;12.15;56.91
21300;BME280;10809;49.476;11.016;2023-02-21T12:08:09;98536.28;;;12.23;57.26
21300;BME280;10809;49.476;11.016;2023-02-21T12:17:11;98515.16;;;12.51;57.12
21300;BME280;10809;49.476;11.016;2023-02-21T12:20:06;98515.53;;;12.59;56.88
21300;BME280;10809;49.476;11.016;2023-02-21T12:22:52;98512.22;;;12.69;56.87
21300;BME280;10809;49.476;11.016;2023-02-21T12:43:33;98468.38;;;13.33;56.38
21300;BME280;10809;49.476;11.016;2023-02-21T12:46:37;98455.50;;;13.39;56.17
21300;BME280;10809;49.476;11.016;2023-02-21T12:49:42;98463.16;;;13.45;56.31
21300;BME280;10809;49.476;11.016;2023-02-21T12:52:18;98462.75;;;13.51;55.86
21300;BME280;10809;49.476;11.016;2023-02-21T12:55:11;98443.72;;;13.57;55.86
21300;BME280;10809;49.476;11.016;2023-02-21T12:57:57;98444.16;;;13.64;55.69
21300;BME280;10809;49.476;11.016;2023-02-21T13:00:51;98448.25;;;13.69;55.83
21300;BME280;10809;49.476;11.016;2023-02-21T13:03:35;98438.22;;;13.73;55.62
21300;BME280;10809;49.476;11.016;2023-02-21T13:06:32;98436.22;;;13.76;55.42
21300;BME280;10809;49.476;11.016;2023-02-21T13:11:40;98424.91;;;13.73;55.10
21300;BME280;10809;49.476;11.016;2023-02-21T13:14:53;98419.50;;;13.74;55.32
21300;BME280;10809;49.476;11.016;2023-02-21T13:17:26;98413.88;;;13.79;55.15
21300;BME280;10809;49.476;11.016;2023-02-21T13:20:12;98406.53;;;13.82;55.34
21300;BME280;10809;49.476;11.016;2023-02-21T13:22:56;98411.44;;;13.88;55.32
21300;BME280;10809;49.476;11.016;2023-02-21T13:28:20;98395.63;;;13.99;55.47
21300;BME280;10809;49.476;11.016;2023-02-21T13:30:58;98389.75;;;14.07;55.33
21300;BME280;10809;49.476;11.016;2023-02-21T13:33:36;98394.56;;;14.14;55.27
21300;BME280;10809;49.476;11.016;2023-02-21T13:39:19;98383.81;;;14.28;55.07
21300;BME280;10809;49.476;11.016;2023-02-21T13:42:15;98378.91;;;14.35;54.99
21300;BME280;10809;49.476;11.016;2023-02-21T13:44:49;98386.56;;;14.39;54.51
21300;BME280;10809;49.476;11.016;2023-02-21T13:47:22;98377.84;;;14.37;54.24
21300;BME280;10809;49.476;11.016;2023-02-21T13:49:56;98375.19;;;14.37;54.13
21300;BME280;10809;49.476;11.016;2023-02-21T13:53:00;98376.34;;;14.33;54.56
21300;BME280;10809;49.476;11.016;2023-02-21T13:55:32;98379.31;;;14.29;54.23
21300;BME280;10809;49.476;11.016;2023-02-21T14:08:34;98362.19;;;14.20;54.89
21300;BME280;10809;49.476;11.016;2023-02-21T14:11:19;98351.09;;;14.26;55.03
21300;BME280;10809;49.476;11.016;2023-02-21T14:17:00;98342.72;;;14.45;54.96
21300;BME280;10809;49.476;11.016;2023-02-21T14:19:45;98342.16;;;14.52;54.70
21300;BME280;10809;49.476;11.016;2023-02-21T14:22:28;98345.38;;;14.57;54.77
21300;BME280;10809;49.476;11.016;2023-02-21T14:25:20;98347.06;;;14.58;54.52
21300;BME280;10809;49.476;11.016;2023-02-21T14:27:55;98343.53;;;14.58;54.01
21300;BME280;10809;49.476;11.016;2023-02-21T14:30:29;98335.66;;;14.56;54.03
21300;BME280;10809;49.476;11.016;2023-02-21T14:33:25;98336.84;;;14.52;54.24
21300;BME280;10809;49.476;11.016;2023-02-21T14:36:01;98331.63;;;14.51;54.31
21300;BME280;10809;49.476;11.016;2023-02-21T14:38:42;98331.63;;;14.51;54.49
21300;BME280;10809;49.476;11.016;2023-02-21T14:44:04;98331.06;;;14.58;54.67
21300;BME280;10809;49.476;11.016;2023-02-21T14:49:58;98324.84;;;14.83;55.19
21300;BME280;10809;49.476;11.016;2023-02-21T14:58:28;98325.94;;;15.28;54.60
21300;BME280;10809;49.476;11.016;2023-02-21T15:01:22;98320.56;;;15.40;54.36
21300;BME280;10809;49.476;11.016;2023-02-21T15:04:01;98311.88;;;15.49;53.69
21300;BME280;10809;49.476;11.016;2023-02-21T15:06:39;98309.72;;;15.54;53.81
21300;BME280;10809;49.476;11.016;2023-02-21T15:09:16;98308.16;;;15.63;53.52
21300;BME280;10809;49.476;11.016;2023-02-21T15:11:48;98313.78;;;15.71;53.57
21300;BME280;10809;49.476;11.016;2023-02-21T15:14:28;98311.25;;;15.80;53.72
21300;BME280;10809;49.476;11.016;2023-02-21T15:17:19;98306.41;;;15.85;53.63
21300;BME280;10809;49.476;11.016;2023-02-21T15:20:03;98309.06;;;15.85;52.95
21300;BME280;10809;49.476;11.016;2023-02-21T15:22:39;98306.75;;;15.81;52.37
21300;BME280;10809;49.476;11.016;2023-02-21T15:30:37;98296.59;;;15.51;52.49
21300;BME280;10809;49.476;11.016;2023-02-21T15:33:19;98296.44;;;15.42;52.54
21300;BME280;10809;49.476;11.016;2023-02-21T15:36:02;98297.09;;;15.33;52.28
21300;BME280;10809;49.476;11.016;2023-02-21T15:41:35;98300.28;;;15.14;52.33
21300;BME280;10809;49.476;11.016;2023-02-21T15:44:18;98297.47;;;15.05;52.38
21300;BME280;10809;49.476;11.016;2023-02-21T15:49:42;98301.44;;;14.87;52.81
21300;BME280;10809;49.476;11.016;2023-02-21T15:52:27;98301.28;;;14.77;52.46
21300;BME280;10809;49.476;11.016;2023-02-21T15:55:28;98294.69;;;14.70;52.69
21300;BME280;10809;49.476;11.016;2023-02-21T16:01:01;98291.53;;;14.52;52.72